Time;durP1;ratioP1;P1;durP2;ratioP2;P2;SDS_P1;SDS_P2;PMS_P1;PMS_P2;Temp;Humidity;BMP_temperature;BMP_pressure;BME280_temperature;BME280_humidity;BME280_pressure;Samples;Min_cycle;Max_cycle;Signal;HPM_P1;HPM_P2
2022/05/19 00:00:25;;;;;;;4.60;4.30;;;29.60;43.00;;;;;;5063879;28;20470;-82
2022/05/19 00:02:53;;;;;;;4.57;4.17;;;29.60;42.90;;;;;;5057138;28;20483;-82
2022/05/19 00:05:21;;;;;;;4.23;3.93;;;29.60;43.00;;;;;;5057224;28;20443;-82
2022/05/19 00:07:49;;;;;;;4.27;3.97;;;29.50;42.90;;;;;;5044434;28;20452;-82
2022/05/19 00:10:17;;;;;;;4.67;4.27;;;29.50;42.90;;;;;;5044245;28;20475;-82
2022/05/19 00:12:45;;;;;;;4.83;4.53;;;29.50;42.90;;;;;;5044280;28;20467;-83
2022/05/19 00:15:13;;;;;;;4.67;4.27;;;29.50;42.90;;;;;;5043975;28;20499;-83
2022/05/19 00:17:43;;;;;;;4.40;4.10;;;29.40;42.90;;;;;;5043698;28;20442;-82
2022/05/19 00:20:12;;;;;;;4.20;3.90;;;29.40;43.00;;;;;;5052075;28;20510;-82
2022/05/19 00:22:42;;;;;;;4.90;4.47;;;29.40;43.00;;;;;;5055655;28;20443;-82
2022/05/19 00:25:10;;;;;;;4.70;4.43;;;29.40;43.00;;;;;;5063015;28;20502;-83
2022/05/19 00:27:38;;;;;;;4.70;4.30;;;29.40;43.00;;;;;;5063833;28;20500;-83
2022/05/19 00:30:08;;;;;;;5.17;4.67;;;29.30;42.90;;;;;;5063665;28;20462;-82
2022/05/19 00:32:36;;;;;;;4.40;4.10;;;29.30;42.90;;;;;;5062963;28;20473;-83
2022/05/19 00:35:06;;;;;;;5.73;4.60;;;29.30;42.90;;;;;;5059894;28;20486;-82
2022/05/19 00:37:34;;;;;;;4.40;4.20;;;29.30;42.90;;;;;;5042668;28;20445;-83
2022/05/19 00:40:02;;;;;;;4.60;4.30;;;29.30;42.90;;;;;;5042550;28;20522;-82
2022/05/19 00:42:45;;;;;;;4.40;4.10;;;29.30;42.80;;;;;;5043803;28;20475;-82
2022/05/19 00:45:14;;;;;;;4.73;4.27;;;29.20;42.90;;;;;;5042821;28;20460;-82
2022/05/19 00:47:44;;;;;;;5.13;4.73;;;29.20;42.90;;;;;;5043651;28;20475;-82
2022/05/19 00:50:19;;;;;;;5.00;4.60;;;29.10;42.80;;;;;;5043718;28;20467;-83
2022/05/19 00:52:47;;;;;;;6.40;4.90;;;29.10;42.80;;;;;;5052523;28;20428;-82
2022/05/19 00:55:17;;;;;;;4.73;4.43;;;29.10;42.80;;;;;;5063500;28;20443;-82
2022/05/19 00:57:48;;;;;;;4.97;4.57;;;29.10;42.80;;;;;;5063189;28;20445;-82
2022/05/19 01:00:17;;;;;;;4.10;3.90;;;29.10;42.80;;;;;;5062876;28;20475;-82
2022/05/19 01:02:47;;;;;;;5.20;4.60;;;29.00;42.80;;;;;;5063877;28;20477;-83
2022/05/19 01:05:18;;;;;;;4.80;4.37;;;29.00;42.70;;;;;;5063936;28;20438;-82
2022/05/19 01:07:48;;;;;;;3.93;3.73;;;29.00;42.80;;;;;;5063107;28;20470;-82
2022/05/19 01:10:16;;;;;;;5.30;4.80;;;29.00;42.80;;;;;;5057545;28;20486;-82
2022/05/19 01:12:46;;;;;;;4.47;4.17;;;29.00;42.80;;;;;;5060221;28;20451;-83
2022/05/19 01:15:14;;;;;;;5.10;4.60;;;28.90;42.70;;;;;;5043541;28;21005;-83
2022/05/19 01:17:42;;;;;;;5.10;4.70;;;28.90;42.70;;;;;;5042912;28;20502;-83
2022/05/19 01:20:13;;;;;;;5.10;4.73;;;28.90;42.70;;;;;;5042847;28;20487;-83
2022/05/19 01:22:46;;;;;;;6.67;5.00;;;28.90;42.80;;;;;;5047422;28;20468;-83
2022/05/19 01:25:17;;;;;;;6.57;5.50;;;28.90;42.70;;;;;;5046743;28;20447;-83
2022/05/19 01:27:47;;;;;;;5.73;5.23;;;28.90;42.70;;;;;;5050196;28;20447;-82
2022/05/19 01:30:15;;;;;;;4.87;4.50;;;28.80;42.70;;;;;;5066652;28;20524;-83
2022/05/19 01:32:42;;;;;;;5.70;5.30;;;28.80;42.60;;;;;;5066240;28;21007;-83
2022/05/19 01:35:11;;;;;;;5.37;4.97;;;28.80;42.70;;;;;;5066617;28;20441;-83
2022/05/19 01:37:39;;;;;;;5.50;5.10;;;28.80;42.60;;;;;;5066851;28;20444;-83
2022/05/19 01:40:12;;;;;;;6.10;5.50;;;28.70;42.70;;;;;;5066537;28;20552;-83
2022/05/19 01:42:45;;;;;;;5.03;4.73;;;28.70;42.70;;;;;;5066640;28;20467;-83
2022/05/19 01:45:21;;;;;;;5.23;4.20;;;28.70;42.70;;;;;;5058920;28;20966;-82
2022/05/19 01:47:52;;;;;;;5.47;5.07;;;28.70;42.80;;;;;;5065532;28;20462;-82
2022/05/19 01:50:23;;;;;;;4.97;4.67;;;28.70;42.80;;;;;;5065399;28;20501;-82
2022/05/19 01:52:53;;;;;;;5.27;4.90;;;28.60;42.70;;;;;;5066204;28;20446;-82
2022/05/19 01:55:24;;;;;;;5.77;5.27;;;28.60;42.80;;;;;;5067306;28;20515;-82
2022/05/19 01:57:54;;;;;;;5.30;4.90;;;28.60;42.60;;;;;;5068733;28;20462;-82
2022/05/19 02:00:25;;;;;;;5.10;4.80;;;28.60;42.70;;;;;;5067468;28;20474;-82
2022/05/19 02:02:56;;;;;;;4.73;4.43;;;28.60;42.70;;;;;;5062330;28;20473;-82
2022/05/19 02:05:31;;;;;;;5.57;5.07;;;28.60;42.80;;;;;;5065859;28;20446;-82
2022/05/19 02:08:01;;;;;;;6.13;5.37;;;28.60;42.70;;;;;;5065032;28;20421;-82
2022/05/19 02:10:31;;;;;;;5.07;4.77;;;28.50;42.70;;;;;;5065376;28;20448;-82
2022/05/19 02:13:00;;;;;;;5.13;4.73;;;28.50;42.70;;;;;;5066217;28;20438;-82
2022/05/19 02:15:32;;;;;;;4.90;4.50;;;28.50;42.70;;;;;;5066014;28;20476;-82
2022/05/19 02:18:00;;;;;;;6.10;5.70;;;28.50;42.70;;;;;;5062430;28;20475;-82
2022/05/19 02:20:29;;;;;;;5.77;5.30;;;28.50;42.70;;;;;;5059529;28;20466;-83
2022/05/19 02:22:57;;;;;;;5.30;4.90;;;28.40;42.60;;;;;;5056621;28;20893;-84
2022/05/19 02:25:28;;;;;;;6.17;5.77;;;28.40;42.70;;;;;;5055806;28;20484;-84
2022/05/19 02:27:57;;;;;;;5.83;5.30;;;28.40;42.60;;;;;;5055657;28;20473;-84
2022/05/19 02:30:28;;;;;;;8.70;7.90;;;28.40;42.60;;;;;;5055616;28;20475;-84
2022/05/19 02:32:57;;;;;;;5.83;5.33;;;28.40;42.60;;;;;;5057847;28;20486;-84
2022/05/19 02:35:26;;;;;;;8.40;7.50;;;28.40;42.50;;;;;;5063653;28;20470;-82
2022/05/19 02:37:54;;;;;;;8.23;6.30;;;28.30;42.60;;;;;;5051911;28;20419;-83
2022/05/19 02:40:23;;;;;;;7.20;6.10;;;28.30;42.50;;;;;;5038546;28;20471;-83
2022/05/19 02:42:51;;;;;;;7.13;6.53;;;28.30;42.60;;;;;;5035793;28;20450;-84
2022/05/19 02:45:22;;;;;;;8.07;6.50;;;28.30;42.50;;;;;;5040711;28;20856;-83
2022/05/19 02:47:51;;;;;;;5.90;5.40;;;28.30;42.50;;;;;;5036730;28;20476;-83
2022/05/19 02:50:21;;;;;;;6.87;6.13;;;28.30;42.50;;;;;;5035017;28;20442;-83
2022/05/19 02:52:49;;;;;;;6.03;5.53;;;28.30;42.60;;;;;;5054081;28;20448;-83
2022/05/19 02:55:17;;;;;;;5.87;5.37;;;28.20;42.50;;;;;;5055911;28;20413;-83
2022/05/19 02:57:45;;;;;;;6.23;5.77;;;28.20;42.60;;;;;;5055163;28;20446;-83
2022/05/19 03:00:15;;;;;;;6.63;5.80;;;28.20;42.50;;;;;;5054789;28;20505;-83
2022/05/19 03:02:43;;;;;;;6.40;5.90;;;28.10;42.60;;;;;;5054643;28;20538;-84
2022/05/19 03:05:12;;;;;;;8.80;7.83;;;28.20;42.70;;;;;;5054516;28;20969;-84
2022/05/19 03:07:42;;;;;;;8.23;7.50;;;28.10;42.70;;;;;;5053515;28;20520;-83
2022/05/19 03:10:13;;;;;;;7.00;6.37;;;28.10;43.10;;;;;;5055276;28;20474;-83
2022/05/19 03:12:41;;;;;;;10.87;9.57;;;28.10;43.10;;;;;;5056154;28;20965;-83
2022/05/19 03:15:10;;;;;;;8.97;8.07;;;28.10;43.00;;;;;;5054359;28;20466;-84
2022/05/19 03:17:38;;;;;;;11.23;9.27;;;28.10;43.10;;;;;;5054547;28;20514;-84
2022/05/19 03:20:07;;;;;;;9.10;8.20;;;28.10;43.20;;;;;;5054405;28;20437;-84
2022/05/19 03:22:38;;;;;;;9.13;7.37;;;28.10;43.00;;;;;;5059513;28;20481;-83
2022/05/19 03:25:11;;;;;;;8.10;7.40;;;28.00;43.10;;;;;;5055525;28;20466;-83
2022/05/19 03:27:39;;;;;;;7.57;6.87;;;28.00;42.80;;;;;;5054430;28;20827;-83
2022/05/19 03:30:11;;;;;;;9.00;7.53;;;28.00;43.00;;;;;;5056223;28;20554;-83
2022/05/19 03:32:39;;;;;;;7.77;7.07;;;28.00;43.00;;;;;;5054805;28;20502;-83
2022/05/19 03:35:08;;;;;;;7.30;6.70;;;28.00;42.90;;;;;;5054890;28;20451;-83
2022/05/19 03:37:36;;;;;;;7.07;6.47;;;27.90;42.80;;;;;;5054363;28;20459;-83
2022/05/19 03:40:05;;;;;;;7.37;6.40;;;27.90;42.70;;;;;;5052804;28;20508;-83
2022/05/19 03:42:34;;;;;;;6.67;6.17;;;27.90;42.80;;;;;;5051703;28;20633;-83
2022/05/19 03:45:03;;;;;;;8.00;6.10;;;27.90;42.80;;;;;;5055346;28;20441;-83
2022/05/19 03:47:31;;;;;;;7.37;6.67;;;27.90;42.70;;;;;;5054514;28;20451;-84
2022/05/19 03:49:59;;;;;;;6.70;6.10;;;27.90;43.30;;;;;;5034266;28;20442;-84
2022/05/19 03:52:27;;;;;;;7.37;6.63;;;27.80;42.60;;;;;;5034850;28;20457;-83
2022/05/19 03:54:55;;;;;;;6.10;5.50;;;27.80;42.70;;;;;;5037079;28;20437;-83
2022/05/19 03:57:24;;;;;;;7.47;6.30;;;27.80;42.70;;;;;;5037646;28;20472;-83
2022/05/19 03:59:53;;;;;;;6.60;6.03;;;27.80;42.70;;;;;;5050834;28;20477;-83
2022/05/19 04:02:21;;;;;;;6.67;6.03;;;27.80;42.60;;;;;;5053691;28;20446;-83
2022/05/19 04:05:02;;;;;;;6.70;6.10;;;27.80;42.70;;;;;;5053802;28;20527;-83
2022/05/19 04:07:30;;;;;;;7.20;6.70;;;27.80;42.50;;;;;;5054029;28;20465;-84
2022/05/19 04:09:58;;;;;;;6.13;5.57;;;27.80;42.60;;;;;;5053557;28;20536;-83
2022/05/19 04:12:26;;;;;;;6.57;5.97;;;27.80;42.40;;;;;;5053538;28;20473;-84
2022/05/19 04:14:55;;;;;;;6.50;5.90;;;27.80;42.50;;;;;;5051432;28;20469;-83
2022/05/19 04:17:23;;;;;;;6.97;6.33;;;27.80;42.40;;;;;;5050870;28;20452;-83
2022/05/19 04:19:52;;;;;;;6.67;6.10;;;27.70;42.30;;;;;;5059069;28;20462;-84
2022/05/19 04:22:20;;;;;;;7.77;6.50;;;27.70;42.40;;;;;;5055463;28;20515;-84
2022/05/19 04:24:48;;;;;;;5.90;5.40;;;27.70;42.40;;;;;;5053550;28;20441;-84
2022/05/19 04:27:16;;;;;;;6.47;5.97;;;27.70;42.20;;;;;;5055744;28;20467;-85
2022/05/19 04:29:44;;;;;;;6.63;6.10;;;27.70;42.30;;;;;;5053441;28;21034;-85
2022/05/19 04:32:15;;;;;;;6.50;6.00;;;27.70;42.20;;;;;;5051136;28;20556;-84
2022/05/19 04:34:43;;;;;;;5.77;5.37;;;27.70;42.10;;;;;;5054000;28;20533;-84
2022/05/19 04:37:11;;;;;;;5.93;5.33;;;27.70;42.30;;;;;;5053615;28;20481;-84
2022/05/19 04:39:39;;;;;;;6.43;5.93;;;27.70;42.10;;;;;;5053064;28;20435;-84
2022/05/19 04:42:08;;;;;;;6.20;5.70;;;27.70;42.20;;;;;;5053123;28;20545;-84
2022/05/19 04:44:36;;;;;;;6.70;6.10;;;27.70;42.20;;;;;;5053149;28;20470;-84
2022/05/19 04:47:05;;;;;;;6.90;6.30;;;27.60;42.20;;;;;;5054285;28;20440;-84
2022/05/19 04:49:35;;;;;;;5.80;5.30;;;27.70;42.10;;;;;;5055755;28;20417;-85
2022/05/19 04:52:05;;;;;;;6.20;5.67;;;27.70;42.10;;;;;;5052769;28;20500;-84
2022/05/19 04:54:33;;;;;;;5.80;5.40;;;27.60;41.90;;;;;;5053083;28;20413;-84
2022/05/19 04:57:01;;;;;;;6.53;6.03;;;27.60;42.00;;;;;;5052209;28;20539;-84
2022/05/19 04:59:29;;;;;;;7.57;6.77;;;27.60;42.00;;;;;;5052679;28;20453;-84
2022/05/19 05:01:58;;;;;;;6.33;5.80;;;27.60;42.00;;;;;;5052831;28;20442;-84
2022/05/19 05:04:26;;;;;;;5.90;5.40;;;27.60;41.90;;;;;;5052634;28;20553;-84
2022/05/19 05:06:55;;;;;;;6.20;5.70;;;27.60;41.90;;;;;;5052730;28;20421;-84
2022/05/19 05:09:27;;;;;;;6.13;5.53;;;27.60;41.80;;;;;;5047902;28;20547;-84
2022/05/19 05:11:55;;;;;;;5.77;5.30;;;27.60;41.90;;;;;;5052600;28;20442;-84
2022/05/19 05:14:23;;;;;;;6.10;5.70;;;27.60;41.80;;;;;;5052727;28;20470;-84
2022/05/19 05:16:53;;;;;;;5.50;5.10;;;27.60;41.70;;;;;;5052517;28;20456;-84
2022/05/19 05:19:22;;;;;;;6.20;5.70;;;27.60;41.80;;;;;;5053107;28;20496;-84
2022/05/19 05:21:51;;;;;;;5.90;5.40;;;27.60;41.70;;;;;;5052893;28;20446;-84
2022/05/19 05:24:21;;;;;;;5.77;5.27;;;27.50;41.70;;;;;;5052479;28;20548;-84
2022/05/19 05:26:49;;;;;;;5.87;5.37;;;27.60;41.70;;;;;;5050719;28;20466;-84
2022/05/19 05:29:17;;;;;;;5.77;5.17;;;27.60;41.70;;;;;;5052805;28;20475;-84
2022/05/19 05:31:45;;;;;;;6.07;5.60;;;27.60;42.20;;;;;;5053726;28;20444;-84
2022/05/19 05:34:13;;;;;;;5.60;5.20;;;27.60;41.50;;;;;;5052886;28;20466;-84
2022/05/19 05:36:41;;;;;;;6.10;5.60;;;27.60;41.40;;;;;;5052729;28;20471;-84
2022/05/19 05:39:09;;;;;;;6.30;5.80;;;27.60;41.50;;;;;;5052653;28;20455;-84
2022/05/19 05:41:39;;;;;;;7.13;6.43;;;27.60;41.40;;;;;;5050607;28;20453;-84
2022/05/19 05:44:07;;;;;;;6.30;5.80;;;27.60;41.50;;;;;;5052991;28;20421;-83
2022/05/19 05:46:35;;;;;;;8.33;6.50;;;27.70;41.40;;;;;;5053036;28;20413;-84
2022/05/19 05:49:03;;;;;;;7.03;6.40;;;27.60;41.10;;;;;;5052341;28;20456;-84
2022/05/19 05:51:31;;;;;;;7.07;6.47;;;27.60;41.30;;;;;;5052264;28;20465;-84
2022/05/19 05:53:59;;;;;;;7.60;6.93;;;27.70;41.30;;;;;;5052484;28;20508;-84
2022/05/19 05:56:27;;;;;;;7.67;6.90;;;27.60;41.20;;;;;;5052030;28;20435;-84
2022/05/19 05:58:59;;;;;;;7.27;6.57;;;27.70;41.10;;;;;;5052537;28;20448;-84
2022/05/19 06:01:31;;;;;;;7.10;6.50;;;27.60;41.20;;;;;;5053156;28;20473;-84
2022/05/19 06:03:59;;;;;;;8.00;6.90;;;27.70;41.20;;;;;;5033535;28;20438;-83
2022/05/19 06:06:27;;;;;;;7.20;6.50;;;27.70;41.10;;;;;;5032167;28;21078;-84
2022/05/19 06:08:55;;;;;;;8.40;7.37;;;27.70;41.10;;;;;;5035205;28;20456;-84
2022/05/19 06:11:29;;;;;;;8.33;6.70;;;27.80;41.20;;;;;;5035711;28;20467;-84
2022/05/19 06:13:59;;;;;;;7.87;7.07;;;27.70;41.30;;;;;;5038937;28;20531;-84
2022/05/19 06:16:28;;;;;;;7.23;6.60;;;27.80;41.20;;;;;;5046018;28;20560;-83
2022/05/19 06:18:56;;;;;;;7.70;7.07;;;27.80;41.50;;;;;;5057292;28;20442;-84
2022/05/19 06:21:25;;;;;;;7.13;6.40;;;27.80;41.60;;;;;;5058018;28;20496;-83
2022/05/19 06:23:53;;;;;;;7.50;6.30;;;27.80;41.50;;;;;;5056024;28;20406;-84
2022/05/19 06:26:21;;;;;;;6.60;6.00;;;27.80;41.50;;;;;;5056052;28;20488;-84
2022/05/19 06:28:49;;;;;;;6.80;6.20;;;27.90;41.60;;;;;;5056172;28;20533;-84
2022/05/19 06:31:18;;;;;;;6.60;5.90;;;27.90;41.80;;;;;;5055786;28;20437;-84
2022/05/19 06:33:47;;;;;;;7.17;6.20;;;27.90;41.80;;;;;;5054478;28;20557;-84
2022/05/19 06:36:15;;;;;;;7.80;5.90;;;28.00;41.90;;;;;;5056745;28;20437;-83
2022/05/19 06:38:44;;;;;;;6.80;5.90;;;28.00;42.00;;;;;;5057139;28;20432;-83
2022/05/19 06:43:57;;;;;;;6.27;5.03;;;28.00;42.10;;;;;;5034274;28;20450;-84
2022/05/19 06:46:26;;;;;;;7.40;5.47;;;28.10;42.40;;;;;;5056668;28;20499;-84
2022/05/19 06:48:55;;;;;;;6.00;5.27;;;28.20;42.10;;;;;;5056194;28;20458;-84
2022/05/19 06:51:23;;;;;;;5.73;5.27;;;28.20;42.10;;;;;;5056079;28;20476;-84
2022/05/19 06:53:52;;;;;;;5.10;4.70;;;28.30;42.10;;;;;;5057489;28;20417;-84
2022/05/19 06:56:20;;;;;;;5.37;4.97;;;28.30;42.10;;;;;;5055281;28;20473;-84
2022/05/19 06:58:48;;;;;;;5.10;4.70;;;28.40;42.10;;;;;;5056217;28;20497;-84
2022/05/19 07:01:16;;;;;;;5.27;4.87;;;28.50;42.00;;;;;;5055854;28;20470;-84
2022/05/19 07:03:46;;;;;;;5.00;4.67;;;28.60;42.20;;;;;;5056079;28;20416;-84
2022/05/19 07:06:14;;;;;;;5.50;5.10;;;28.70;41.90;;;;;;5051907;28;20466;-83
2022/05/19 07:08:42;;;;;;;5.00;4.60;;;28.80;42.00;;;;;;5056032;28;20929;-84
2022/05/19 07:11:24;;;;;;;5.20;4.90;;;28.80;42.00;;;;;;5056060;28;20497;-84
2022/05/19 07:13:57;;;;;;;5.00;4.60;;;28.90;41.90;;;;;;5055531;28;20455;-84
2022/05/19 07:16:26;;;;;;;4.57;4.27;;;28.90;41.80;;;;;;5055241;28;20443;-83
2022/05/19 07:20:43;;;;;;;4.93;4.50;;;29.00;41.90;;;;;;5054623;28;20452;-84
2022/05/19 07:21:44;;;;;;;5.40;4.80;;;29.10;41.90;;;;;;5054422;28;20473;-84
2022/05/19 07:24:16;;;;;;;4.53;4.23;;;29.10;41.90;;;;;;5048548;28;20429;-84
2022/05/19 07:26:44;;;;;;;4.60;4.27;;;29.20;41.80;;;;;;5054317;28;20467;-84
2022/05/19 07:29:13;;;;;;;4.03;3.73;;;29.30;41.70;;;;;;5054717;28;20472;-84
2022/05/19 07:31:41;;;;;;;5.27;4.07;;;29.40;41.70;;;;;;5054172;28;20596;-84
2022/05/19 07:34:12;;;;;;;4.47;4.23;;;29.50;41.60;;;;;;5054213;28;20917;-84
2022/05/19 07:36:40;;;;;;;4.27;3.97;;;29.50;41.60;;;;;;5065027;28;20464;-84
2022/05/19 07:39:08;;;;;;;4.80;3.87;;;29.60;41.60;;;;;;5065919;28;20434;-84
2022/05/19 07:41:36;;;;;;;4.17;3.77;;;29.60;41.50;;;;;;5060495;28;20496;-84
2022/05/19 07:44:05;;;;;;;5.23;4.07;;;29.70;41.50;;;;;;5056113;28;20493;-84
2022/05/19 07:46:33;;;;;;;3.90;3.60;;;29.70;41.60;;;;;;5055832;28;20474;-84
2022/05/19 07:49:01;;;;;;;3.57;3.37;;;29.80;41.50;;;;;;5055135;28;20452;-85
2022/05/19 07:51:36;;;;;;;3.83;3.57;;;29.90;41.60;;;;;;5054579;28;20461;-85
2022/05/19 07:54:05;;;;;;;3.90;3.70;;;30.00;41.60;;;;;;5054764;28;20517;-84
2022/05/19 07:56:33;;;;;;;3.97;3.57;;;30.10;41.40;;;;;;5058018;28;20493;-83
2022/05/19 07:59:01;;;;;;;4.40;3.47;;;30.20;41.30;;;;;;5056329;28;20458;-85
2022/05/19 08:01:30;;;;;;;3.53;3.33;;;30.20;41.30;;;;;;5046881;28;20536;-84
2022/05/19 08:03:58;;;;;;;4.70;3.60;;;30.20;41.40;;;;;;5052142;28;20458;-84
2022/05/19 08:06:28;;;;;;;4.00;3.70;;;30.20;41.30;;;;;;5052671;28;20458;-83
2022/05/19 08:08:58;;;;;;;3.70;3.50;;;30.30;41.30;;;;;;5053389;28;20514;-83
2022/05/19 08:11:26;;;;;;;3.70;3.40;;;30.40;41.30;;;;;;5052996;28;20837;-84
2022/05/19 08:16:46;;;;;;;5.47;4.97;;;30.50;41.30;;;;;;5062373;28;20453;-82
2022/05/19 08:19:15;;;;;;;10.30;5.67;;;30.40;41.70;;;;;;5049792;28;20469;-84
2022/05/19 08:21:44;;;;;;;5.90;5.27;;;30.40;41.90;;;;;;5039187;28;20468;-84
2022/05/19 08:24:14;;;;;;;10.43;6.70;;;30.30;42.00;;;;;;5041876;28;20455;-83
2022/05/19 08:26:42;;;;;;;7.20;6.50;;;30.10;42.20;;;;;;5041825;28;20498;-81
2022/05/19 08:29:10;;;;;;;8.47;5.80;;;30.10;42.40;;;;;;5040083;28;20474;-80
2022/05/19 08:31:39;;;;;;;6.30;5.10;;;30.30;42.40;;;;;;5032990;28;20546;-76
2022/05/19 08:34:08;;;;;;;7.30;6.60;;;30.50;42.50;;;;;;5032032;28;20475;-77
2022/05/19 08:36:39;;;;;;;8.73;6.90;;;30.40;42.50;;;;;;5032782;28;20938;-79
2022/05/19 08:39:07;;;;;;;6.27;5.03;;;30.40;42.30;;;;;;5034010;28;20471;-79
2022/05/19 08:41:38;;;;;;;13.00;4.60;;;30.40;42.40;;;;;;5032367;28;20558;-77
2022/05/19 08:44:08;;;;;;;6.07;4.47;;;30.60;42.10;;;;;;5031981;28;20490;-76
2022/05/19 08:46:39;;;;;;;5.53;4.90;;;30.50;41.70;;;;;;5031629;28;20471;-77
2022/05/19 08:49:09;;;;;;;15.00;4.80;;;30.60;41.70;;;;;;5031603;28;20440;-77
2022/05/19 08:51:39;;;;;;;6.90;6.20;;;30.70;41.60;;;;;;5031647;28;20553;-77
2022/05/19 08:54:08;;;;;;;5.47;5.07;;;30.70;41.80;;;;;;5032002;28;20451;-76
2022/05/19 08:56:40;;;;;;;5.00;4.60;;;30.80;41.70;;;;;;5049793;28;20458;-76
2022/05/19 08:59:17;;;;;;;8.20;7.37;;;30.90;41.50;;;;;;5051819;28;20435;-78
2022/05/19 09:01:47;;;;;;;4.50;4.10;;;30.90;41.80;;;;;;5051840;28;20458;-78
2022/05/19 09:04:29;;;;;;;4.97;4.47;;;30.80;42.10;;;;;;5052219;28;20469;-77
2022/05/19 09:10:02;;;;;;;6.40;5.80;;;30.90;42.00;;;;;;5051449;28;20542;-77
2022/05/19 09:12:32;;;;;;;9.70;5.87;;;30.90;42.30;;;;;;5052105;28;20654;-78
2022/05/19 09:15:00;;;;;;;6.73;5.20;;;31.00;42.20;;;;;;5050877;28;20539;-81
2022/05/19 09:17:31;;;;;;;4.60;4.30;;;31.00;42.30;;;;;;5047961;28;20534;-83
2022/05/19 09:20:01;;;;;;;6.77;5.23;;;31.30;41.90;;;;;;5038263;28;20457;-87
2022/05/19 09:22:33;;;;;;;8.37;5.10;;;31.60;41.60;;;;;;5060955;28;20477;-85
2022/05/19 09:25:03;;;;;;;5.57;5.07;;;31.60;41.70;;;;;;5040605;28;20442;-85
2022/05/19 09:27:35;;;;;;;4.97;4.57;;;31.70;41.50;;;;;;5031615;28;20909;-84
2022/05/19 09:30:03;;;;;;;7.17;5.17;;;31.90;41.40;;;;;;5047519;28;20569;-85
2022/05/19 09:32:34;;;;;;;4.70;4.27;;;32.00;41.50;;;;;;5051817;28;20481;-85
2022/05/19 09:35:04;;;;;;;7.90;5.77;;;32.00;41.30;;;;;;5055156;28;20524;-85
2022/05/19 09:37:44;;;;;;;6.60;6.00;;;32.10;41.40;;;;;;5040540;28;20467;-84
2022/05/19 09:40:21;;;;;;;5.33;4.83;;;31.90;41.40;;;;;;5032341;28;20467;-85
2022/05/19 09:43:16;;;;;;;5.20;4.70;;;31.90;41.70;;;;;;5036717;28;20550;-83
2022/05/19 09:45:48;;;;;;;5.93;4.97;;;32.10;41.60;;;;;;5054669;28;20479;-85
2022/05/19 09:48:16;;;;;;;5.40;5.00;;;32.10;41.40;;;;;;5056072;28;20498;-85
2022/05/19 09:50:45;;;;;;;9.33;5.30;;;32.00;41.60;;;;;;5054908;28;20469;-84
2022/05/19 09:53:15;;;;;;;7.80;4.77;;;32.00;41.70;;;;;;5057152;28;20513;-84
2022/05/19 09:55:44;;;;;;;6.20;4.20;;;32.00;41.70;;;;;;5046974;28;20478;-85
2022/05/19 09:58:15;;;;;;;5.97;4.43;;;32.20;41.30;;;;;;5038776;28;20474;-84
2022/05/19 10:00:44;;;;;;;4.60;4.13;;;32.20;41.10;;;;;;5042324;28;20475;-84
2022/05/19 10:03:19;;;;;;;6.00;4.23;;;32.40;40.90;;;;;;5058307;28;20512;-86
2022/05/19 10:05:49;;;;;;;7.13;4.70;;;32.40;40.90;;;;;;5041802;28;20477;-85
2022/05/19 10:08:19;;;;;;;9.83;5.40;;;32.50;41.00;;;;;;5054164;28;20561;-85
2022/05/19 10:10:55;;;;;;;9.40;4.23;;;32.60;40.70;;;;;;5052279;28;20493;-85
2022/05/19 10:13:29;;;;;;;4.00;3.67;;;32.80;40.20;;;;;;5055215;28;20438;-86
2022/05/19 10:16:02;;;;;;;4.20;4.00;;;32.90;40.00;;;;;;5054992;28;20478;-86
2022/05/19 10:18:53;;;;;;;5.17;4.73;;;32.90;40.30;;;;;;5054701;28;20478;-85
2022/05/19 10:21:44;;;;;;;10.07;4.10;;;32.90;40.40;;;;;;5050186;28;20486;-86
2022/05/19 10:24:26;;;;;;;5.17;4.73;;;33.00;40.40;;;;;;5054783;28;20472;-85
2022/05/19 10:31:02;;;;;;;6.67;6.00;;;32.90;40.20;;;;;;5056495;28;20446;-85
2022/05/19 10:32:52;;;;;;;7.50;5.20;;;32.90;40.30;;;;;;5058505;28;20446;-83
2022/05/19 10:35:23;;;;;;;5.57;5.07;;;32.80;40.20;;;;;;5057793;28;20445;-84
2022/05/19 10:37:59;;;;;;;4.70;4.40;;;32.80;40.30;;;;;;5058437;28;20537;-84
2022/05/19 10:40:34;;;;;;;5.03;4.60;;;32.70;40.60;;;;;;5058520;28;20496;-84
2022/05/19 10:43:10;;;;;;;6.10;5.37;;;32.70;40.60;;;;;;5058418;28;20434;-84
2022/05/19 10:45:40;;;;;;;5.43;4.93;;;32.80;40.70;;;;;;5059168;28;20446;-84
2022/05/19 10:48:23;;;;;;;5.47;4.50;;;32.70;40.30;;;;;;5055801;28;20562;-84
2022/05/19 10:50:53;;;;;;;4.40;4.10;;;32.70;40.20;;;;;;5045077;28;20458;-83
2022/05/19 10:53:32;;;;;;;4.30;3.90;;;32.70;40.10;;;;;;5055783;28;20442;-84
2022/05/19 10:56:08;;;;;;;5.13;3.50;;;32.70;40.30;;;;;;5043746;28;20439;-84
2022/05/19 10:58:42;;;;;;;5.60;3.67;;;32.70;40.10;;;;;;5037377;28;20443;-83
2022/05/19 11:01:17;;;;;;;4.83;4.53;;;32.60;39.90;;;;;;5047836;28;20536;-83
2022/05/19 11:04:09;;;;;;;4.77;4.10;;;32.60;40.00;;;;;;5058590;28;20456;-84
2022/05/19 11:06:45;;;;;;;3.80;3.50;;;32.60;40.00;;;;;;5058378;28;20446;-83
2022/05/19 11:09:18;;;;;;;4.23;3.73;;;32.60;39.90;;;;;;5058292;28;20520;-83
2022/05/19 11:11:54;;;;;;;7.40;4.50;;;32.60;39.80;;;;;;5056454;28;20537;-83
2022/05/19 11:14:36;;;;;;;4.30;3.87;;;32.60;39.80;;;;;;5057615;28;20468;-83
2022/05/19 11:17:10;;;;;;;3.37;3.17;;;32.60;39.90;;;;;;5059087;28;20476;-82
2022/05/19 11:19:40;;;;;;;6.93;3.47;;;32.70;39.80;;;;;;5060401;28;20544;-83
2022/05/19 11:22:11;;;;;;;3.13;2.83;;;32.70;39.80;;;;;;5057150;28;20439;-84
2022/05/19 11:26:23;;;;;;;3.73;3.53;;;32.80;39.70;;;;;;5055754;28;20447;-84
2022/05/19 11:27:30;;;;;;;3.67;3.40;;;32.80;39.70;;;;;;5057212;28;20478;-83
2022/05/19 11:29:59;;;;;;;4.80;4.03;;;32.80;39.80;;;;;;5057557;28;20508;-83
2022/05/19 11:32:32;;;;;;;7.00;4.20;;;32.80;39.70;;;;;;5053954;28;20441;-84
2022/05/19 11:35:09;;;;;;;5.30;4.53;;;33.00;39.80;;;;;;5054684;28;20450;-84
2022/05/19 11:37:39;;;;;;;4.00;3.70;;;33.00;39.60;;;;;;5057578;28;20953;-84
2022/05/19 11:40:15;;;;;;;3.87;3.60;;;33.00;39.70;;;;;;5059514;28;20470;-83
2022/05/19 11:42:46;;;;;;;4.33;4.03;;;33.10;39.50;;;;;;5058931;28;20537;-83
2022/05/19 11:45:17;;;;;;;3.83;3.53;;;33.10;39.70;;;;;;5058691;28;20466;-83
2022/05/19 11:56:20;;;;;;;6.23;4.20;;;33.40;39.40;;;;;;5059034;28;20874;-83
2022/05/19 11:58:48;;;;;;;4.30;4.00;;;33.30;39.30;;;;;;5060676;28;20475;-83
2022/05/19 12:01:19;;;;;;;4.60;4.30;;;33.40;39.10;;;;;;5061411;28;20545;-83
2022/05/19 12:04:08;;;;;;;4.40;4.10;;;33.40;39.30;;;;;;5075305;28;20438;-83
2022/05/19 12:06:45;;;;;;;3.83;3.63;;;33.30;39.30;;;;;;5076591;28;20453;-83
2022/05/19 12:09:22;;;;;;;9.50;4.37;;;33.30;39.40;;;;;;5076541;28;20502;-77
2022/05/19 12:11:54;;;;;;;6.27;3.97;;;33.20;38.40;;;;;;5077232;28;20445;-84
2022/05/19 12:14:33;;;;;;;8.03;4.27;;;32.90;39.60;;;;;;5079934;28;20449;-83
2022/05/19 12:17:15;;;;;;;8.70;4.30;;;32.90;39.80;;;;;;5078052;28;20479;-85
2022/05/19 12:19:53;;;;;;;4.93;4.53;;;33.00;39.70;;;;;;5076596;28;20461;-85
2022/05/19 12:22:31;;;;;;;5.43;3.90;;;33.10;39.90;;;;;;5068664;28;20539;-83
2022/05/19 12:25:16;;;;;;;6.80;4.30;;;33.10;39.40;;;;;;5040408;28;20443;-83
2022/05/19 12:27:55;;;;;;;6.03;4.10;;;33.20;39.70;;;;;;5060099;28;20500;-83
2022/05/19 12:33:24;;;;;;;3.70;3.40;;;33.30;39.50;;;;;;5061033;28;20846;-85
2022/05/19 12:35:56;;;;;;;5.13;4.03;;;33.20;39.30;;;;;;5052364;28;20435;-83
2022/05/19 12:38:29;;;;;;;4.13;3.87;;;33.20;39.60;;;;;;5045829;28;20452;-83
2022/05/19 12:40:57;;;;;;;4.60;3.80;;;33.20;39.50;;;;;;5050122;28;20471;-83
2022/05/19 12:43:37;;;;;;;4.03;3.73;;;33.20;39.40;;;;;;5049682;28;20454;-84
2022/05/19 12:46:07;;;;;;;4.33;3.57;;;33.30;39.20;;;;;;5043206;28;20447;-83
2022/05/19 12:48:52;;;;;;;4.27;3.70;;;33.40;39.20;;;;;;5040075;28;20467;-84
2022/05/19 12:51:47;;;;;;;7.80;3.90;;;33.50;39.00;;;;;;5051858;28;20501;-84
2022/05/19 12:54:15;;;;;;;4.00;3.70;;;33.60;39.30;;;;;;5042708;28;20451;-83
2022/05/19 12:57:25;;;;;;;3.87;3.67;;;33.70;39.10;;;;;;5053394;28;20442;-83
2022/05/19 13:00:09;;;;;;;3.53;3.33;;;33.90;38.80;;;;;;5062032;28;20504;-83
2022/05/19 13:02:41;;;;;;;3.70;3.40;;;33.90;38.70;;;;;;5059824;28;20442;-83
2022/05/19 13:05:21;;;;;;;4.83;3.80;;;33.90;38.70;;;;;;5059759;28;20438;-84
2022/05/19 13:08:07;;;;;;;4.47;4.07;;;33.80;38.80;;;;;;5044966;28;20467;-83
2022/05/19 13:10:38;;;;;;;3.87;3.70;;;33.90;38.80;;;;;;5044583;28;20524;-83
2022/05/19 13:13:08;;;;;;;4.10;3.80;;;33.90;38.50;;;;;;5061591;28;20438;-83
2022/05/19 13:15:48;;;;;;;4.40;3.70;;;33.90;38.60;;;;;;5060820;28;20438;-83
2022/05/19 13:18:19;;;;;;;3.57;3.37;;;33.90;38.70;;;;;;5065956;28;20495;-83
2022/05/19 13:20:47;;;;;;;4.07;3.87;;;33.90;38.70;;;;;;5068377;28;20489;-83
2022/05/19 13:23:21;;;;;;;5.33;4.83;;;33.90;38.60;;;;;;5060331;28;20435;-84
2022/05/19 13:25:50;;;;;;;7.13;4.30;;;34.00;38.90;;;;;;5044669;28;20467;-84
2022/05/19 13:31:19;;;;;;;4.17;3.87;;;33.90;38.60;;;;;;5062149;28;20466;-83